sensor_id;sensor_type;location;lat;lon;timestamp;temperature;humidity
14604;DHT22;7388;51.078;13.740;2023-08-31T00:00:49;20.40;48.30
14604;DHT22;7388;51.078;13.740;2023-08-31T00:03:17;20.40;47.90
14604;DHT22;7388;51.078;13.740;2023-08-31T00:05:43;20.40;48.20
14604;DHT22;7388;51.078;13.740;2023-08-31T00:08:10;20.50;48.00
14604;DHT22;7388;51.078;13.740;2023-08-31T00:10:37;20.50;47.90
14604;DHT22;7388;51.078;13.740;2023-08-31T00:13:03;20.50;47.90
14604;DHT22;7388;51.078;13.740;2023-08-31T00:15:29;20.50;47.90
14604;DHT22;7388;51.078;13.740;2023-08-31T00:17:58;20.50;48.00
14604;DHT22;7388;51.078;13.740;2023-08-31T00:20:24;20.60;48.10
14604;DHT22;7388;51.078;13.740;2023-08-31T00:22:50;20.50;48.10
14604;DHT22;7388;51.078;13.740;2023-08-31T00:25:16;20.60;48.00
14604;DHT22;7388;51.078;13.740;2023-08-31T00:27:42;20.60;47.20
14604;DHT22;7388;51.078;13.740;2023-08-31T00:30:10;20.60;47.20
14604;DHT22;7388;51.078;13.740;2023-08-31T00:32:39;20.60;46.80
14604;DHT22;7388;51.078;13.740;2023-08-31T00:35:08;20.60;46.10
14604;DHT22;7388;51.078;13.740;2023-08-31T00:37:34;20.60;46.30
14604;DHT22;7388;51.078;13.740;2023-08-31T00:40:00;20.60;46.20
14604;DHT22;7388;51.078;13.740;2023-08-31T00:42:25;20.60;45.80
14604;DHT22;7388;51.078;13.740;2023-08-31T00:44:51;20.60;44.90
14604;DHT22;7388;51.078;13.740;2023-08-31T00:47:17;20.60;44.80
14604;DHT22;7388;51.078;13.740;2023-08-31T00:49:44;20.70;45.20
14604;DHT22;7388;51.078;13.740;2023-08-31T00:52:09;20.70;43.40
14604;DHT22;7388;51.078;13.740;2023-08-31T00:54:36;20.70;45.10
14604;DHT22;7388;51.078;13.740;2023-08-31T00:57:02;20.70;45.20
14604;DHT22;7388;51.078;13.740;2023-08-31T00:59:29;20.70;45.20
14604;DHT22;7388;51.078;13.740;2023-08-31T01:04:33;20.70;45.40
14604;DHT22;7388;51.078;13.740;2023-08-31T01:15:30;20.60;45.60
14604;DHT22;7388;51.078;13.740;2023-08-31T01:17:58;20.60;45.80
14604;DHT22;7388;51.078;13.740;2023-08-31T01:20:34;20.60;45.80
14604;DHT22;7388;51.078;13.740;2023-08-31T01:23:19;20.60;45.80
14604;DHT22;7388;51.078;13.740;2023-08-31T01:25:46;20.50;45.70
14604;DHT22;7388;51.078;13.740;2023-08-31T01:28:14;20.50;46.00
14604;DHT22;7388;51.078;13.740;2023-08-31T01:30:40;20.50;46.20
14604;DHT22;7388;51.078;13.740;2023-08-31T01:33:07;20.50;45.60
14604;DHT22;7388;51.078;13.740;2023-08-31T01:35:43;20.40;45.40
14604;DHT22;7388;51.078;13.740;2023-08-31T01:38:10;20.40;45.70
14604;DHT22;7388;51.078;13.740;2023-08-31T01:41:05;20.40;45.80
14604;DHT22;7388;51.078;13.740;2023-08-31T01:43:32;20.40;45.90
14604;DHT22;7388;51.078;13.740;2023-08-31T01:46:01;20.40;45.50
14604;DHT22;7388;51.078;13.740;2023-08-31T01:48:28;20.40;45.40
14604;DHT22;7388;51.078;13.740;2023-08-31T01:50:54;20.40;45.70
14604;DHT22;7388;51.078;13.740;2023-08-31T01:53:19;20.40;45.50
14604;DHT22;7388;51.078;13.740;2023-08-31T01:55:45;20.50;45.80
14604;DHT22;7388;51.078;13.740;2023-08-31T01:58:11;20.50;45.30
14604;DHT22;7388;51.078;13.740;2023-08-31T02:00:36;20.50;45.50
14604;DHT22;7388;51.078;13.740;2023-08-31T02:03:04;20.50;45.70
14604;DHT22;7388;51.078;13.740;2023-08-31T02:05:29;20.50;45.40
14604;DHT22;7388;51.078;13.740;2023-08-31T02:07:55;20.50;45.30
14604;DHT22;7388;51.078;13.740;2023-08-31T02:10:21;20.50;45.70
14604;DHT22;7388;51.078;13.740;2023-08-31T02:12:47;20.50;46.40
14604;DHT22;7388;51.078;13.740;2023-08-31T02:15:12;20.60;45.80
14604;DHT22;7388;51.078;13.740;2023-08-31T02:17:38;20.60;45.50
14604;DHT22;7388;51.078;13.740;2023-08-31T02:20:04;20.60;45.50
14604;DHT22;7388;51.078;13.740;2023-08-31T02:22:33;20.60;45.80
14604;DHT22;7388;51.078;13.740;2023-08-31T02:24:59;20.60;45.80
14604;DHT22;7388;51.078;13.740;2023-08-31T02:27:26;20.60;46.10
14604;DHT22;7388;51.078;13.740;2023-08-31T02:29:52;20.60;46.30
14604;DHT22;7388;51.078;13.740;2023-08-31T02:32:18;20.60;46.30
14604;DHT22;7388;51.078;13.740;2023-08-31T02:34:44;20.60;46.00
14604;DHT22;7388;51.078;13.740;2023-08-31T02:37:10;20.60;45.70
14604;DHT22;7388;51.078;13.740;2023-08-31T02:39:36;20.60;45.50
14604;DHT22;7388;51.078;13.740;2023-08-31T02:42:01;20.60;45.40
14604;DHT22;7388;51.078;13.740;2023-08-31T02:44:27;20.50;45.60
14604;DHT22;7388;51.078;13.740;2023-08-31T02:46:53;20.50;45.60
14604;DHT22;7388;51.078;13.740;2023-08-31T02:49:19;20.50;45.60
14604;DHT22;7388;51.078;13.740;2023-08-31T02:51:44;20.50;45.90
14604;DHT22;7388;51.078;13.740;2023-08-31T02:54:10;20.40;45.40
14604;DHT22;7388;51.078;13.740;2023-08-31T02:56:36;20.40;45.10
14604;DHT22;7388;51.078;13.740;2023-08-31T02:59:02;20.40;45.00
14604;DHT22;7388;51.078;13.740;2023-08-31T03:01:27;20.40;45.20
14604;DHT22;7388;51.078;13.740;2023-08-31T03:03:53;20.30;45.40
14604;DHT22;7388;51.078;13.740;2023-08-31T03:06:19;20.30;45.20
14604;DHT22;7388;51.078;13.740;2023-08-31T03:08:44;20.30;45.70
14604;DHT22;7388;51.078;13.740;2023-08-31T03:11:11;20.40;45.80
14604;DHT22;7388;51.078;13.740;2023-08-31T03:13:39;20.30;45.40
14604;DHT22;7388;51.078;13.740;2023-08-31T03:16:05;20.30;45.70
14604;DHT22;7388;51.078;13.740;2023-08-31T03:18:31;20.30;46.00
14604;DHT22;7388;51.078;13.740;2023-08-31T03:20:56;20.30;46.10
14604;DHT22;7388;51.078;13.740;2023-08-31T03:23:22;20.30;46.00
14604;DHT22;7388;51.078;13.740;2023-08-31T03:25:48;20.30;46.10
14604;DHT22;7388;51.078;13.740;2023-08-31T03:28:13;20.20;45.60
14604;DHT22;7388;51.078;13.740;2023-08-31T03:30:39;20.20;45.80
14604;DHT22;7388;51.078;13.740;2023-08-31T03:33:05;20.20;46.10
14604;DHT22;7388;51.078;13.740;2023-08-31T03:35:32;20.10;46.00
14604;DHT22;7388;51.078;13.740;2023-08-31T03:37:58;20.10;46.10
14604;DHT22;7388;51.078;13.740;2023-08-31T03:40:24;20.10;46.40
14604;DHT22;7388;51.078;13.740;2023-08-31T03:42:50;20.10;46.50
14604;DHT22;7388;51.078;13.740;2023-08-31T03:45:16;20.10;46.50
14604;DHT22;7388;51.078;13.740;2023-08-31T03:47:42;20.10;46.50
14604;DHT22;7388;51.078;13.740;2023-08-31T03:50:08;20.10;46.80
14604;DHT22;7388;51.078;13.740;2023-08-31T03:52:36;20.10;46.60
14604;DHT22;7388;51.078;13.740;2023-08-31T03:55:02;20.10;47.50
14604;DHT22;7388;51.078;13.740;2023-08-31T03:57:28;20.00;46.50
14604;DHT22;7388;51.078;13.740;2023-08-31T03:59:53;20.00;46.60
14604;DHT22;7388;51.078;13.740;2023-08-31T04:02:19;20.00;46.40
14604;DHT22;7388;51.078;13.740;2023-08-31T04:04:45;20.00;46.10
14604;DHT22;7388;51.078;13.740;2023-08-31T04:07:10;20.00;46.50
14604;DHT22;7388;51.078;13.740;2023-08-31T04:09:36;19.90;46.50
14604;DHT22;7388;51.078;13.740;2023-08-31T04:12:02;19.90;45.90
14604;DHT22;7388;51.078;13.740;2023-08-31T04:14:28;19.90;46.40
14604;DHT22;7388;51.078;13.740;2023-08-31T04:16:54;19.80;46.40
14604;DHT22;7388;51.078;13.740;2023-08-31T04:19:20;19.80;46.50
14604;DHT22;7388;51.078;13.740;2023-08-31T04:21:46;19.80;46.40
14604;DHT22;7388;51.078;13.740;2023-08-31T04:24:12;19.80;46.80
14604;DHT22;7388;51.078;13.740;2023-08-31T04:26:37;19.80;47.00
14604;DHT22;7388;51.078;13.740;2023-08-31T04:29:03;19.80;47.00
14604;DHT22;7388;51.078;13.740;2023-08-31T04:31:31;19.80;47.10
14604;DHT22;7388;51.078;13.740;2023-08-31T04:33:57;19.70;46.40
14604;DHT22;7388;51.078;13.740;2023-08-31T04:36:24;19.70;46.60
14604;DHT22;7388;51.078;13.740;2023-08-31T04:38:51;19.70;46.90
14604;DHT22;7388;51.078;13.740;2023-08-31T04:41:17;19.70;46.30
14604;DHT22;7388;51.078;13.740;2023-08-31T04:43:43;19.70;46.80
14604;DHT22;7388;51.078;13.740;2023-08-31T04:46:09;19.60;46.30
14604;DHT22;7388;51.078;13.740;2023-08-31T04:48:35;19.70;46.50
14604;DHT22;7388;51.078;13.740;2023-08-31T04:51:02;19.70;46.50
14604;DHT22;7388;51.078;13.740;2023-08-31T04:53:29;19.70;46.50
14604;DHT22;7388;51.078;13.740;2023-08-31T04:55:55;19.70;46.70
14604;DHT22;7388;51.078;13.740;2023-08-31T04:58:21;19.70;46.50
14604;DHT22;7388;51.078;13.740;2023-08-31T05:00:47;19.70;46.70
14604;DHT22;7388;51.078;13.740;2023-08-31T05:03:13;19.70;46.40
14604;DHT22;7388;51.078;13.740;2023-08-31T05:05:39;19.60;46.20
14604;DHT22;7388;51.078;13.740;2023-08-31T05:08:05;19.60;46.20
14604;DHT22;7388;51.078;13.740;2023-08-31T05:10:31;19.60;46.30
14604;DHT22;7388;51.078;13.740;2023-08-31T05:12:57;19.60;46.00
14604;DHT22;7388;51.078;13.740;2023-08-31T05:15:22;19.60;46.10
14604;DHT22;7388;51.078;13.740;2023-08-31T05:17:48;19.60;46.10
14604;DHT22;7388;51.078;13.740;2023-08-31T05:20:14;19.60;46.30
14604;DHT22;7388;51.078;13.740;2023-08-31T05:22:40;19.60;46.00
14604;DHT22;7388;51.078;13.740;2023-08-31T05:25:06;19.60;46.00
14604;DHT22;7388;51.078;13.740;2023-08-31T05:27:32;19.60;46.10
14604;DHT22;7388;51.078;13.740;2023-08-31T05:29:58;19.60;45.70
14604;DHT22;7388;51.078;13.740;2023-08-31T05:32:23;19.60;46.00
14604;DHT22;7388;51.078;13.740;2023-08-31T05:34:49;19.60;45.70
14604;DHT22;7388;51.078;13.740;2023-08-31T05:37:15;19.60;45.80
14604;DHT22;7388;51.078;13.740;2023-08-31T05:39:41;19.70;46.00
14604;DHT22;7388;51.078;13.740;2023-08-31T05:42:06;19.70;46.00
14604;DHT22;7388;51.078;13.740;2023-08-31T05:44:32;19.70;46.00
14604;DHT22;7388;51.078;13.740;2023-08-31T05:46:58;19.80;46.00
14604;DHT22;7388;51.078;13.740;2023-08-31T05:49:24;19.80;46.00
14604;DHT22;7388;51.078;13.740;2023-08-31T05:51:50;19.90;45.80
14604;DHT22;7388;51.078;13.740;2023-08-31T05:54:16;19.80;45.90
14604;DHT22;7388;51.078;13.740;2023-08-31T05:56:42;19.90;45.90
14604;DHT22;7388;51.078;13.740;2023-08-31T05:59:08;19.90;45.60
14604;DHT22;7388;51.078;13.740;2023-08-31T06:01:36;20.00;45.70
14604;DHT22;7388;51.078;13.740;2023-08-31T06:04:02;20.00;45.70
14604;DHT22;7388;51.078;13.740;2023-08-31T06:06:29;20.00;45.80
14604;DHT22;7388;51.078;13.740;2023-08-31T06:08:55;20.70;46.00
14604;DHT22;7388;51.078;13.740;2023-08-31T06:11:22;20.10;45.70
14604;DHT22;7388;51.078;13.740;2023-08-31T06:13:48;20.20;45.70
14604;DHT22;7388;51.078;13.740;2023-08-31T06:16:13;20.30;45.40
14604;DHT22;7388;51.078;13.740;2023-08-31T06:18:39;20.30;45.30
14604;DHT22;7388;51.078;13.740;2023-08-31T06:21:05;20.50;45.40
14604;DHT22;7388;51.078;13.740;2023-08-31T06:23:31;20.60;45.00
14604;DHT22;7388;51.078;13.740;2023-08-31T06:25:57;20.70;45.30
14604;DHT22;7388;51.078;13.740;2023-08-31T06:28:22;20.80;45.10
14604;DHT22;7388;51.078;13.740;2023-08-31T06:30:48;20.90;44.00
14604;DHT22;7388;51.078;13.740;2023-08-31T06:33:15;20.90;43.20
14604;DHT22;7388;51.078;13.740;2023-08-31T06:35:41;20.90;43.90
14604;DHT22;7388;51.078;13.740;2023-08-31T06:38:07;20.90;44.00
14604;DHT22;7388;51.078;13.740;2023-08-31T06:40:32;20.90;43.60
14604;DHT22;7388;51.078;13.740;2023-08-31T06:43:00;20.90;43.50
14604;DHT22;7388;51.078;13.740;2023-08-31T06:45:26;20.90;43.30
14604;DHT22;7388;51.078;13.740;2023-08-31T06:47:51;20.90;43.80
14604;DHT22;7388;51.078;13.740;2023-08-31T06:50:17;20.90;43.60
14604;DHT22;7388;51.078;13.740;2023-08-31T06:52:43;20.90;44.20
14604;DHT22;7388;51.078;13.740;2023-08-31T06:55:09;20.90;44.80
14604;DHT22;7388;51.078;13.740;2023-08-31T06:57:36;20.90;43.90
14604;DHT22;7388;51.078;13.740;2023-08-31T07:00:03;20.80;43.30
14604;DHT22;7388;51.078;13.740;2023-08-31T07:02:29;20.80;43.80
14604;DHT22;7388;51.078;13.740;2023-08-31T07:04:55;20.80;42.80
14604;DHT22;7388;51.078;13.740;2023-08-31T07:07:21;20.80;43.80
14604;DHT22;7388;51.078;13.740;2023-08-31T07:09:47;20.70;42.30
14604;DHT22;7388;51.078;13.740;2023-08-31T07:12:16;20.70;43.60
14604;DHT22;7388;51.078;13.740;2023-08-31T07:14:42;20.80;44.60
14604;DHT22;7388;51.078;13.740;2023-08-31T07:17:08;20.90;43.90
14604;DHT22;7388;51.078;13.740;2023-08-31T07:19:37;20.90;43.10
14604;DHT22;7388;51.078;13.740;2023-08-31T07:22:03;21.60;42.20
14604;DHT22;7388;51.078;13.740;2023-08-31T07:24:29;20.90;42.20
14604;DHT22;7388;51.078;13.740;2023-08-31T07:26:55;20.90;42.20
14604;DHT22;7388;51.078;13.740;2023-08-31T07:29:21;20.80;42.60
14604;DHT22;7388;51.078;13.740;2023-08-31T07:31:47;20.80;42.80
14604;DHT22;7388;51.078;13.740;2023-08-31T07:34:13;20.90;42.80
14604;DHT22;7388;51.078;13.740;2023-08-31T07:36:38;20.80;42.80
14604;DHT22;7388;51.078;13.740;2023-08-31T07:39:05;20.80;43.20
14604;DHT22;7388;51.078;13.740;2023-08-31T07:41:31;20.90;43.00
14604;DHT22;7388;51.078;13.740;2023-08-31T07:43:56;20.90;43.20
14604;DHT22;7388;51.078;13.740;2023-08-31T07:46:22;21.00;42.90
14604;DHT22;7388;51.078;13.740;2023-08-31T07:48:48;21.10;43.50
14604;DHT22;7388;51.078;13.740;2023-08-31T07:51:15;21.20;43.50
14604;DHT22;7388;51.078;13.740;2023-08-31T07:53:41;21.30;44.40
14604;DHT22;7388;51.078;13.740;2023-08-31T07:56:07;21.30;43.40
14604;DHT22;7388;51.078;13.740;2023-08-31T07:58:33;21.30;42.80
14604;DHT22;7388;51.078;13.740;2023-08-31T08:00:58;21.20;42.10
14604;DHT22;7388;51.078;13.740;2023-08-31T08:03:24;21.30;42.40
14604;DHT22;7388;51.078;13.740;2023-08-31T08:05:51;21.30;41.10
14604;DHT22;7388;51.078;13.740;2023-08-31T08:08:17;21.30;40.40
14604;DHT22;7388;51.078;13.740;2023-08-31T08:10:43;21.30;40.00
14604;DHT22;7388;51.078;13.740;2023-08-31T08:13:09;21.30;39.90
14604;DHT22;7388;51.078;13.740;2023-08-31T08:15:37;21.30;40.90
14604;DHT22;7388;51.078;13.740;2023-08-31T08:18:03;21.40;40.30
14604;DHT22;7388;51.078;13.740;2023-08-31T08:20:29;21.50;39.70
14604;DHT22;7388;51.078;13.740;2023-08-31T08:22:55;21.60;39.40
14604;DHT22;7388;51.078;13.740;2023-08-31T08:25:21;21.60;38.50
14604;DHT22;7388;51.078;13.740;2023-08-31T08:27:47;21.60;39.60
14604;DHT22;7388;51.078;13.740;2023-08-31T08:30:14;21.70;38.50
14604;DHT22;7388;51.078;13.740;2023-08-31T08:32:41;21.70;38.60
14604;DHT22;7388;51.078;13.740;2023-08-31T08:35:07;21.80;38.00
14604;DHT22;7388;51.078;13.740;2023-08-31T08:37:33;21.90;39.30
14604;DHT22;7388;51.078;13.740;2023-08-31T08:40:00;22.00;38.20
14604;DHT22;7388;51.078;13.740;2023-08-31T08:42:26;22.10;38.70
14604;DHT22;7388;51.078;13.740;2023-08-31T08:44:56;22.10;37.90
14604;DHT22;7388;51.078;13.740;2023-08-31T08:47:22;22.20;37.40
14604;DHT22;7388;51.078;13.740;2023-08-31T08:49:50;22.30;38.30
14604;DHT22;7388;51.078;13.740;2023-08-31T08:52:16;22.30;37.20
14604;DHT22;7388;51.078;13.740;2023-08-31T08:54:42;22.40;37.60
14604;DHT22;7388;51.078;13.740;2023-08-31T08:57:07;22.50;36.30
14604;DHT22;7388;51.078;13.740;2023-08-31T08:59:33;22.60;38.00
14604;DHT22;7388;51.078;13.740;2023-08-31T09:01:59;22.70;38.00
14604;DHT22;7388;51.078;13.740;2023-08-31T09:04:25;22.90;38.30
14604;DHT22;7388;51.078;13.740;2023-08-31T09:06:51;23.10;38.30
14604;DHT22;7388;51.078;13.740;2023-08-31T09:09:17;23.20;38.50
14604;DHT22;7388;51.078;13.740;2023-08-31T09:11:44;23.30;37.30
14604;DHT22;7388;51.078;13.740;2023-08-31T09:14:17;23.40;36.40
14604;DHT22;7388;51.078;13.740;2023-08-31T09:16:48;23.40;37.50
14604;DHT22;7388;51.078;13.740;2023-08-31T09:19:21;23.50;37.10
14604;DHT22;7388;51.078;13.740;2023-08-31T09:21:48;23.60;36.00
14604;DHT22;7388;51.078;13.740;2023-08-31T09:24:14;23.50;35.20
14604;DHT22;7388;51.078;13.740;2023-08-31T09:27:01;23.40;36.40
14604;DHT22;7388;51.078;13.740;2023-08-31T09:29:26;23.50;36.40
14604;DHT22;7388;51.078;13.740;2023-08-31T09:31:52;23.40;35.80
14604;DHT22;7388;51.078;13.740;2023-08-31T09:34:18;23.30;33.70
14604;DHT22;7388;51.078;13.740;2023-08-31T09:36:45;23.20;33.20
14604;DHT22;7388;51.078;13.740;2023-08-31T09:39:12;23.10;34.70
14604;DHT22;7388;51.078;13.740;2023-08-31T09:41:52;23.00;35.20
14604;DHT22;7388;51.078;13.740;2023-08-31T09:44:19;23.20;35.10
14604;DHT22;7388;51.078;13.740;2023-08-31T09:46:46;23.20;35.70
14604;DHT22;7388;51.078;13.740;2023-08-31T09:49:14;23.20;35.50
14604;DHT22;7388;51.078;13.740;2023-08-31T09:51:44;23.20;35.60
14604;DHT22;7388;51.078;13.740;2023-08-31T09:54:16;23.10;35.60
14604;DHT22;7388;51.078;13.740;2023-08-31T09:56:43;23.00;35.60
14604;DHT22;7388;51.078;13.740;2023-08-31T09:59:14;23.00;35.90
14604;DHT22;7388;51.078;13.740;2023-08-31T10:01:40;22.90;34.80
14604;DHT22;7388;51.078;13.740;2023-08-31T10:04:07;22.90;35.60
14604;DHT22;7388;51.078;13.740;2023-08-31T10:06:39;23.00;35.50
14604;DHT22;7388;51.078;13.740;2023-08-31T10:09:05;23.00;34.40
14604;DHT22;7388;51.078;13.740;2023-08-31T10:11:32;23.00;34.90
14604;DHT22;7388;51.078;13.740;2023-08-31T10:13:58;23.20;35.40
14604;DHT22;7388;51.078;13.740;2023-08-31T10:16:27;23.30;36.00
14604;DHT22;7388;51.078;13.740;2023-08-31T10:18:55;23.50;35.00
14604;DHT22;7388;51.078;13.740;2023-08-31T10:21:21;23.60;33.60
14604;DHT22;7388;51.078;13.740;2023-08-31T10:23:48;23.60;33.80
14604;DHT22;7388;51.078;13.740;2023-08-31T10:26:28;23.70;34.50
14604;DHT22;7388;51.078;13.740;2023-08-31T10:28:54;23.90;34.10
14604;DHT22;7388;51.078;13.740;2023-08-31T10:31:21;23.90;34.10
14604;DHT22;7388;51.078;13.740;2023-08-31T10:34:00;23.80;33.60
14604;DHT22;7388;51.078;13.740;2023-08-31T10:37:01;23.80;34.60
14604;DHT22;7388;51.078;13.740;2023-08-31T10:39:37;23.80;33.60
14604;DHT22;7388;51.078;13.740;2023-08-31T10:42:03;23.70;33.80
14604;DHT22;7388;51.078;13.740;2023-08-31T10:44:32;23.70;33.80
14604;DHT22;7388;51.078;13.740;2023-08-31T10:47:03;23.70;33.30
14604;DHT22;7388;51.078;13.740;2023-08-31T10:49:29;23.70;34.70
14604;DHT22;7388;51.078;13.740;2023-08-31T10:52:16;23.80;34.60
14604;DHT22;7388;51.078;13.740;2023-08-31T10:54:43;24.10;35.10
14604;DHT22;7388;51.078;13.740;2023-08-31T10:57:09;24.30;35.30
14604;DHT22;7388;51.078;13.740;2023-08-31T10:59:42;24.50;34.70
14604;DHT22;7388;51.078;13.740;2023-08-31T11:02:08;24.60;34.00
14604;DHT22;7388;51.078;13.740;2023-08-31T11:07:23;24.90;34.40
14604;DHT22;7388;51.078;13.740;2023-08-31T11:09:49;24.90;30.50
14604;DHT22;7388;51.078;13.740;2023-08-31T11:12:15;24.70;31.30
14604;DHT22;7388;51.078;13.740;2023-08-31T11:14:41;24.60;31.20
14604;DHT22;7388;51.078;13.740;2023-08-31T11:17:07;24.40;32.50
14604;DHT22;7388;51.078;13.740;2023-08-31T11:19:34;24.00;32.50
14604;DHT22;7388;51.078;13.740;2023-08-31T11:22:03;23.70;33.00
14604;DHT22;7388;51.078;13.740;2023-08-31T11:24:33;23.30;33.40
14604;DHT22;7388;51.078;13.740;2023-08-31T11:26:59;22.90;34.90
14604;DHT22;7388;51.078;13.740;2023-08-31T11:29:25;22.80;35.00
14604;DHT22;7388;51.078;13.740;2023-08-31T11:31:51;22.60;35.70
14604;DHT22;7388;51.078;13.740;2023-08-31T11:34:18;22.40;35.60
14604;DHT22;7388;51.078;13.740;2023-08-31T11:36:46;22.30;35.40
14604;DHT22;7388;51.078;13.740;2023-08-31T11:39:17;22.20;35.60
14604;DHT22;7388;51.078;13.740;2023-08-31T11:41:43;22.10;36.50
14604;DHT22;7388;51.078;13.740;2023-08-31T11:44:11;22.00;36.40
14604;DHT22;7388;51.078;13.740;2023-08-31T11:46:37;21.90;36.30
14604;DHT22;7388;51.078;13.740;2023-08-31T11:49:04;21.80;36.00
14604;DHT22;7388;51.078;13.740;2023-08-31T11:51:32;21.80;36.50
14604;DHT22;7388;51.078;13.740;2023-08-31T11:54:02;21.70;36.90
14604;DHT22;7388;51.078;13.740;2023-08-31T11:56:47;21.70;37.00
14604;DHT22;7388;51.078;13.740;2023-08-31T11:59:18;21.70;37.60
14604;DHT22;7388;51.078;13.740;2023-08-31T12:01:46;21.70;37.80
14604;DHT22;7388;51.078;13.740;2023-08-31T12:04:22;21.80;37.00
14604;DHT22;7388;51.078;13.740;2023-08-31T12:06:50;21.90;37.70
14604;DHT22;7388;51.078;13.740;2023-08-31T12:09:17;22.00;37.70
14604;DHT22;7388;51.078;13.740;2023-08-31T12:11:49;22.10;38.20
14604;DHT22;7388;51.078;13.740;2023-08-31T12:14:23;22.30;38.30
14604;DHT22;7388;51.078;13.740;2023-08-31T12:16:49;22.50;37.80
14604;DHT22;7388;51.078;13.740;2023-08-31T12:19:15;22.60;37.40
14604;DHT22;7388;51.078;13.740;2023-08-31T12:21:43;22.80;36.50
14604;DHT22;7388;51.078;13.740;2023-08-31T12:24:09;23.00;36.00
14604;DHT22;7388;51.078;13.740;2023-08-31T12:26:35;23.20;36.50
14604;DHT22;7388;51.078;13.740;2023-08-31T12:29:02;23.10;36.10
14604;DHT22;7388;51.078;13.740;2023-08-31T12:31:30;23.10;36.00
14604;DHT22;7388;51.078;13.740;2023-08-31T12:33:56;23.10;36.50
14604;DHT22;7388;51.078;13.740;2023-08-31T12:36:22;23.20;36.60
14604;DHT22;7388;51.078;13.740;2023-08-31T12:38:47;23.20;35.70
14604;DHT22;7388;51.078;13.740;2023-08-31T12:41:13;23.20;35.90
14604;DHT22;7388;51.078;13.740;2023-08-31T12:43:39;23.30;36.10
14604;DHT22;7388;51.078;13.740;2023-08-31T12:46:05;23.40;36.00
14604;DHT22;7388;51.078;13.740;2023-08-31T12:48:35;23.50;36.30
14604;DHT22;7388;51.078;13.740;2023-08-31T12:51:01;23.60;35.30
14604;DHT22;7388;51.078;13.740;2023-08-31T12:53:27;23.50;35.70
14604;DHT22;7388;51.078;13.740;2023-08-31T12:55:53;23.40;35.40
14604;DHT22;7388;51.078;13.740;2023-08-31T12:58:19;23.40;36.20
14604;DHT22;7388;51.078;13.740;2023-08-31T13:00:47;23.30;36.30
14604;DHT22;7388;51.078;13.740;2023-08-31T13:03:14;23.20;35.50
14604;DHT22;7388;51.078;13.740;2023-08-31T13:05:41;23.10;35.00
14604;DHT22;7388;51.078;13.740;2023-08-31T13:08:07;23.00;34.10
14604;DHT22;7388;51.078;13.740;2023-08-31T13:10:34;23.00;35.00
14604;DHT22;7388;51.078;13.740;2023-08-31T13:13:00;22.90;35.50
14604;DHT22;7388;51.078;13.740;2023-08-31T13:15:26;22.90;35.30
14604;DHT22;7388;51.078;13.740;2023-08-31T13:17:52;22.80;36.50
14604;DHT22;7388;51.078;13.740;2023-08-31T13:20:18;22.90;38.10
14604;DHT22;7388;51.078;13.740;2023-08-31T13:22:44;23.10;38.10
14604;DHT22;7388;51.078;13.740;2023-08-31T13:25:09;23.40;36.90
14604;DHT22;7388;51.078;13.740;2023-08-31T13:27:37;23.60;37.90
14604;DHT22;7388;51.078;13.740;2023-08-31T13:30:03;24.00;35.80
14604;DHT22;7388;51.078;13.740;2023-08-31T13:32:35;24.20;37.30
14604;DHT22;7388;51.078;13.740;2023-08-31T13:35:01;24.50;35.90
14604;DHT22;7388;51.078;13.740;2023-08-31T13:37:26;24.70;36.00
14604;DHT22;7388;51.078;13.740;2023-08-31T13:39:52;24.90;35.90
14604;DHT22;7388;51.078;13.740;2023-08-31T13:42:20;25.10;34.40
14604;DHT22;7388;51.078;13.740;2023-08-31T13:44:46;25.20;34.90
14604;DHT22;7388;51.078;13.740;2023-08-31T13:47:12;25.20;34.40
14604;DHT22;7388;51.078;13.740;2023-08-31T13:49:38;25.40;34.90
14604;DHT22;7388;51.078;13.740;2023-08-31T13:52:04;25.50;34.20
14604;DHT22;7388;51.078;13.740;2023-08-31T13:54:33;25.70;35.00
14604;DHT22;7388;51.078;13.740;2023-08-31T13:56:58;25.90;34.00
14604;DHT22;7388;51.078;13.740;2023-08-31T13:59:25;25.90;33.80
14604;DHT22;7388;51.078;13.740;2023-08-31T14:01:53;25.90;33.40
14604;DHT22;7388;51.078;13.740;2023-08-31T14:04:19;25.80;32.40
14604;DHT22;7388;51.078;13.740;2023-08-31T14:06:45;25.60;32.40
14604;DHT22;7388;51.078;13.740;2023-08-31T14:09:11;25.40;32.80
14604;DHT22;7388;51.078;13.740;2023-08-31T14:11:37;25.30;33.00
14604;DHT22;7388;51.078;13.740;2023-08-31T14:14:04;25.00;33.40
14604;DHT22;7388;51.078;13.740;2023-08-31T14:16:39;24.90;32.60
14604;DHT22;7388;51.078;13.740;2023-08-31T14:19:05;24.70;32.60
14604;DHT22;7388;51.078;13.740;2023-08-31T14:21:31;24.60;33.80
14604;DHT22;7388;51.078;13.740;2023-08-31T14:23:57;24.50;35.70
14604;DHT22;7388;51.078;13.740;2023-08-31T14:26:24;24.40;36.40
14604;DHT22;7388;51.078;13.740;2023-08-31T14:28:52;24.40;37.50
14604;DHT22;7388;51.078;13.740;2023-08-31T14:31:19;24.40;36.60
14604;DHT22;7388;51.078;13.740;2023-08-31T14:33:45;24.40;36.40
14604;DHT22;7388;51.078;13.740;2023-08-31T14:36:14;24.40;36.20
14604;DHT22;7388;51.078;13.740;2023-08-31T14:38:40;24.40;35.60
14604;DHT22;7388;51.078;13.740;2023-08-31T14:41:06;24.40;35.50
14604;DHT22;7388;51.078;13.740;2023-08-31T14:43:35;24.50;34.60
14604;DHT22;7388;51.078;13.740;2023-08-31T14:46:01;24.70;35.40
14604;DHT22;7388;51.078;13.740;2023-08-31T14:48:27;24.90;35.60
14604;DHT22;7388;51.078;13.740;2023-08-31T14:50:54;25.00;35.90
14604;DHT22;7388;51.078;13.740;2023-08-31T14:53:19;25.00;35.30
14604;DHT22;7388;51.078;13.740;2023-08-31T14:55:49;25.00;34.20
14604;DHT22;7388;51.078;13.740;2023-08-31T14:58:15;25.00;33.90
14604;DHT22;7388;51.078;13.740;2023-08-31T15:00:41;25.00;34.00
14604;DHT22;7388;51.078;13.740;2023-08-31T15:03:06;25.00;33.60
14604;DHT22;7388;51.078;13.740;2023-08-31T15:05:32;25.10;34.40
14604;DHT22;7388;51.078;13.740;2023-08-31T15:08:00;25.10;34.80
14604;DHT22;7388;51.078;13.740;2023-08-31T15:10:27;25.20;35.10
14604;DHT22;7388;51.078;13.740;2023-08-31T15:12:53;25.20;34.20
14604;DHT22;7388;51.078;13.740;2023-08-31T15:15:26;25.10;34.00
14604;DHT22;7388;51.078;13.740;2023-08-31T15:17:52;25.20;35.00
14604;DHT22;7388;51.078;13.740;2023-08-31T15:20:18;25.10;35.20
14604;DHT22;7388;51.078;13.740;2023-08-31T15:22:44;25.10;35.10
14604;DHT22;7388;51.078;13.740;2023-08-31T15:25:09;25.10;35.50
14604;DHT22;7388;51.078;13.740;2023-08-31T15:27:35;25.00;35.70
14604;DHT22;7388;51.078;13.740;2023-08-31T15:30:01;24.90;35.60
14604;DHT22;7388;51.078;13.740;2023-08-31T15:32:28;24.80;34.60
14604;DHT22;7388;51.078;13.740;2023-08-31T15:34:54;24.70;35.20
14604;DHT22;7388;51.078;13.740;2023-08-31T15:37:20;24.50;35.00
14604;DHT22;7388;51.078;13.740;2023-08-31T15:39:46;24.50;35.70
14604;DHT22;7388;51.078;13.740;2023-08-31T15:42:11;24.40;36.00